Time;durP1;ratioP1;P1;durP2;ratioP2;P2;SDS_P1;SDS_P2;PMS_P1;PMS_P2;Temp;Humidity;BMP_temperature;BMP_pressure;BME280_temperature;BME280_humidity;BME280_pressure;Samples;Min_cycle;Max_cycle;Signal;HPM_P1;HPM_P2
2024/01/21 00:00:50;;;;;;;15.10;7.80;;;;;;;-1.10;96.85;100039.86;108660;1256;70204;-80
2024/01/21 00:03:17;;;;;;;14.30;7.30;;;;;;;-1.08;96.17;100042.00;108812;1256;58124;-80
2024/01/21 00:05:44;;;;;;;15.00;7.60;;;;;;;-1.12;96.06;100039.63;108400;1255;59328;-82
2024/01/21 00:08:11;;;;;;;14.70;7.50;;;;;;;-1.07;96.03;100038.85;106843;1257;72501;-82
2024/01/21 00:10:38;;;;;;;13.10;7.60;;;;;;;-1.08;95.70;100049.14;105856;1257;70246;-81
2024/01/21 00:13:04;;;;;;;13.00;6.50;;;;;;;-1.11;96.08;100041.84;105705;1262;72706;-82
2024/01/21 00:15:31;;;;;;;12.30;7.40;;;;;;;-1.07;96.22;100055.54;105843;1258;60556;-81
2024/01/21 00:17:58;;;;;;;13.50;8.30;;;;;;;-1.04;95.69;100050.11;105692;1257;60530;-79
2024/01/21 00:20:25;;;;;;;13.20;7.40;;;;;;;-1.08;95.69;100054.52;105939;1257;73876;-81
2024/01/21 00:22:51;;;;;;;10.10;7.10;;;;;;;-1.14;95.49;100051.52;105730;1259;68867;-80
2024/01/21 00:25:18;;;;;;;13.30;7.20;;;;;;;-1.09;95.17;100051.11;105765;1259;71725;-79
2024/01/21 00:27:45;;;;;;;14.50;8.20;;;;;;;-1.11;94.80;100055.89;105692;1257;60547;-80
2024/01/21 00:30:12;;;;;;;11.40;7.10;;;;;;;-1.18;95.10;100046.52;106002;1256;60546;-80
2024/01/21 00:32:39;;;;;;;10.70;7.30;;;;;;;-1.17;95.06;100045.94;106324;1257;73880;-79
2024/01/21 00:35:07;;;;;;;11.90;8.10;;;;;;;-1.13;94.80;100043.31;106233;1257;68910;-80
2024/01/21 00:37:34;;;;;;;12.70;7.20;;;;;;;-1.15;95.17;100047.61;105784;1258;72676;-79
2024/01/21 00:40:00;;;;;;;11.50;7.60;;;;;;;-1.21;95.44;100046.73;105641;1260;60479;-79
2024/01/21 00:42:27;;;;;;;11.80;7.30;;;;;;;-1.24;96.02;100050.34;105734;1256;60448;-79
2024/01/21 00:44:54;;;;;;;15.20;7.90;;;;;;;-1.17;95.78;100053.61;105758;1258;60444;-79
2024/01/21 00:47:21;;;;;;;15.10;7.60;;;;;;;-1.12;95.39;100054.05;105789;1260;70139;-78
2024/01/21 00:49:48;;;;;;;11.20;7.90;;;;;;;-1.17;95.71;100057.11;106374;1256;71151;-81
2024/01/21 00:52:15;;;;;;;10.10;7.00;;;;;;;-1.20;95.84;100052.05;108902;1256;59655;-79
2024/01/21 00:54:42;;;;;;;10.80;6.30;;;;;;;-1.13;95.75;100051.68;108526;1255;59196;-79
2024/01/21 00:57:08;;;;;;;11.90;7.50;;;;;;;-1.12;95.97;100052.85;106962;1259;72396;-77
2024/01/21 00:59:36;;;;;;;11.40;7.00;;;;;;;-1.15;96.11;100055.08;106390;1258;68727;-78
2024/01/21 01:02:03;;;;;;;13.20;7.40;;;;;;;-1.09;95.71;100051.62;106174;1257;72655;-79
2024/01/21 01:04:30;;;;;;;14.10;7.80;;;;;;;-1.04;95.63;100052.73;105872;1257;60469;-81
2024/01/21 01:06:56;;;;;;;9.60;6.70;;;;;;;-1.06;95.53;100051.42;105717;1257;60547;-77
2024/01/21 01:09:23;;;;;;;16.50;8.60;;;;;;;-1.11;95.66;100056.07;106091;1259;73951;-79
2024/01/21 01:11:50;;;;;;;10.10;7.40;;;;;;;-1.09;95.50;100055.77;105888;1259;69046;-78
2024/01/21 01:14:16;;;;;;;15.90;8.20;;;;;;;-1.02;95.13;100058.16;106182;1259;72368;-78
2024/01/21 01:16:43;;;;;;;15.60;7.90;;;;;;;-1.04;95.06;100062.96;106288;1256;60763;-80
2024/01/21 01:19:10;;;;;;;11.20;7.30;;;;;;;-1.09;95.06;100062.39;107445;1257;60489;-79
2024/01/21 01:21:37;;;;;;;14.00;7.60;;;;;;;-1.05;94.94;100063.36;107434;1257;73903;-79
2024/01/21 01:24:05;;;;;;;13.20;8.50;;;;;;;-0.97;94.66;100064.66;106574;1259;70132;-81
2024/01/21 01:26:31;;;;;;;13.30;8.50;;;;;;;-0.98;94.58;100060.76;105833;1256;72673;-79
2024/01/21 01:28:58;;;;;;;13.10;8.50;;;;;;;-1.03;94.77;100065.37;105708;1260;60542;-80
2024/01/21 01:31:25;;;;;;;12.90;8.00;;;;;;;-1.00;94.47;100063.30;105786;1259;60517;-80
2024/01/21 01:33:52;;;;;;;13.00;8.10;;;;;;;-0.91;94.38;100065.38;105738;1259;61675;-79
2024/01/21 01:36:19;;;;;;;14.60;8.70;;;;;;;-0.91;94.24;100066.05;105887;1260;70619;-78
2024/01/21 01:38:45;;;;;;;14.20;8.90;;;;;;;-0.94;94.17;100067.46;105619;1262;71352;-79
2024/01/21 01:41:12;;;;;;;14.00;8.00;;;;;;;-0.92;93.85;100070.17;105801;1259;61041;-80
2024/01/21 01:43:39;;;;;;;14.80;8.20;;;;;;;-0.84;93.39;100068.63;105783;1257;60492;-80
2024/01/21 01:46:06;;;;;;;15.30;9.50;;;;;;;-0.88;93.21;100071.27;106037;1259;73874;-80
2024/01/21 01:48:33;;;;;;;15.80;9.00;;;;;;;-0.95;93.32;100068.90;106755;1256;70044;-78
2024/01/21 01:51:00;;;;;;;15.70;9.20;;;;;;;-0.94;93.23;100074.63;109006;1256;71467;-81
2024/01/21 01:53:31;;;;;;;12.40;8.20;;;;;;;-0.85;93.08;100075.32;108975;1256;58317;-79
2024/01/21 01:55:57;;;;;;;14.60;9.50;;;;;;;-0.86;93.21;100076.23;106933;1257;60349;-80
2024/01/21 01:58:26;;;;;;;20.40;10.20;;;;;;;-0.91;93.47;100078.23;106508;1259;73616;-80
2024/01/21 02:00:53;;;;;;;15.50;9.30;;;;;;;-0.87;93.19;100079.95;106397;1259;69078;-79
2024/01/21 02:03:21;;;;;;;13.00;8.70;;;;;;;-0.79;92.67;100083.99;105693;1257;72481;-79
2024/01/21 02:05:47;;;;;;;13.20;8.70;;;;;;;-0.81;92.63;100085.50;106025;1256;60551;-80
2024/01/21 02:08:14;;;;;;;13.60;9.30;;;;;;;-0.87;92.92;100089.32;105965;1259;60455;-79
2024/01/21 02:10:41;;;;;;;14.50;9.50;;;;;;;-0.88;92.90;100091.13;105887;1257;72498;-78
2024/01/21 02:13:07;;;;;;;15.00;9.50;;;;;;;-0.81;92.74;100093.32;106134;1257;70124;-80
2024/01/21 02:15:34;;;;;;;17.00;9.70;;;;;;;-0.82;92.55;100096.17;106720;1257;72793;-78
2024/01/21 02:18:01;;;;;;;16.50;9.60;;;;;;;-0.88;92.82;100102.23;107653;1256;60344;-79
2024/01/21 02:20:29;;;;;;;14.00;9.20;;;;;;;-0.84;92.82;100103.95;108468;1259;60001;-79
2024/01/21 02:22:59;;;;;;;13.70;9.90;;;;;;;-0.74;92.33;100107.37;108638;1256;58016;-76
2024/01/21 02:25:25;;;;;;;15.30;10.10;;;;;;;-0.77;92.41;100104.92;108199;1256;69043;-78
2024/01/21 02:27:53;;;;;;;15.50;9.10;;;;;;;-0.83;92.57;100111.18;107382;1256;72575;-78
2024/01/21 02:30:19;;;;;;;15.30;9.80;;;;;;;-0.78;92.45;100110.53;106808;1257;59976;-77
2024/01/21 02:32:46;;;;;;;16.20;8.80;;;;;;;-0.70;92.30;100116.55;107363;1256;60452;-77
2024/01/21 02:35:13;;;;;;;13.40;9.60;;;;;;;-0.72;92.41;100121.55;108017;1256;73650;-80
2024/01/21 02:37:41;;;;;;;14.10;9.30;;;;;;;-0.76;92.51;100121.94;107834;1257;68814;-79
2024/01/21 02:40:08;;;;;;;13.90;9.30;;;;;;;-0.74;92.46;100120.11;106989;1256;72357;-79
2024/01/21 02:42:35;;;;;;;13.50;9.00;;;;;;;-0.64;91.94;100124.36;107227;1256;61426;-79
2024/01/21 02:45:02;;;;;;;17.60;10.70;;;;;;;-0.64;91.81;100125.91;107972;1256;59708;-80
2024/01/21 02:47:29;;;;;;;16.90;10.30;;;;;;;-0.68;91.96;100135.05;107132;1257;72465;-79
2024/01/21 02:49:56;;;;;;;18.40;10.10;;;;;;;-0.68;91.87;100134.16;109050;1255;70344;-82
2024/01/21 02:52:22;;;;;;;16.80;10.10;;;;;;;-0.61;91.70;100134.99;108683;1256;71262;-79
2024/01/21 02:54:49;;;;;;;15.00;10.90;;;;;;;-0.61;91.67;100134.11;107702;1256;60423;-80
2024/01/21 02:57:16;;;;;;;15.00;9.50;;;;;;;-0.66;91.61;100140.83;107139;1256;60434;-80
2024/01/21 02:59:43;;;;;;;13.80;9.20;;;;;;;-0.63;91.68;100138.55;106528;1259;73722;-81
2024/01/21 03:02:09;;;;;;;15.10;10.90;;;;;;;-0.57;91.40;100141.20;106380;1257;69002;-79
2024/01/21 03:04:36;;;;;;;20.00;11.60;;;;;;;-0.63;91.53;100138.73;105922;1262;72376;-81
2024/01/21 03:07:03;;;;;;;16.30;10.80;;;;;;;-0.70;91.77;100137.05;106664;1257;60458;-78
2024/01/21 03:09:30;;;;;;;15.30;9.60;;;;;;;-0.66;91.76;100139.46;106324;1256;60393;-80
2024/01/21 03:11:56;;;;;;;16.30;9.80;;;;;;;-0.60;91.38;100141.02;106211;1256;72281;-82
2024/01/21 03:14:23;;;;;;;15.60;10.60;;;;;;;-0.63;91.52;100147.26;105775;1256;70210;-82
2024/01/21 03:16:50;;;;;;;16.10;10.90;;;;;;;-0.70;91.64;100149.73;105741;1257;72542;-81
2024/01/21 03:19:16;;;;;;;14.90;10.00;;;;;;;-0.69;91.66;100152.30;105767;1256;60922;-82
2024/01/21 03:21:44;;;;;;;17.50;11.50;;;;;;;-0.64;91.51;100153.95;105859;1256;60445;-82
2024/01/21 03:24:10;;;;;;;16.20;11.90;;;;;;;-0.68;91.39;100149.30;105589;1258;73687;-80
2024/01/21 03:26:39;;;;;;;16.70;11.70;;;;;;;-0.73;91.88;100156.02;106086;1257;70239;-83
2024/01/21 03:29:05;;;;;;;15.80;10.40;;;;;;;-0.76;91.94;100158.45;105851;1257;72612;-82
2024/01/21 03:31:32;;;;;;;19.10;12.00;;;;;;;-0.70;91.64;100161.20;105704;1257;60533;-81
2024/01/21 03:33:59;;;;;;;15.10;11.00;;;;;;;-0.64;91.56;100166.28;105691;1257;60391;-81
2024/01/21 03:36:26;;;;;;;18.70;11.40;;;;;;;-0.67;91.65;100163.88;105733;1259;73754;-81
2024/01/21 03:38:53;;;;;;;17.40;11.40;;;;;;;-0.73;91.65;100169.75;105888;1257;70358;-81
2024/01/21 03:41:20;;;;;;;17.80;11.20;;;;;;;-0.69;91.70;100168.66;106149;1257;71478;-82
2024/01/21 03:43:47;;;;;;;16.90;10.70;;;;;;;-0.64;91.65;100171.48;105835;1259;60374;-81
2024/01/21 03:46:13;;;;;;;17.70;11.20;;;;;;;-0.67;91.85;100174.83;106331;1257;62363;-81
2024/01/21 03:48:40;;;;;;;16.10;11.00;;;;;;;-0.73;92.02;100177.92;108987;1255;72364;-83
2024/01/21 03:51:09;;;;;;;18.80;11.20;;;;;;;-0.71;92.14;100180.43;109139;1256;68881;-82
2024/01/21 03:53:39;;;;;;;16.10;11.30;;;;;;;-0.61;91.87;100184.89;108113;1256;71045;-83
2024/01/21 03:56:06;;;;;;;15.70;10.70;;;;;;;-0.54;91.74;100188.20;108356;1256;60435;-83
2024/01/21 03:58:33;;;;;;;16.10;12.10;;;;;;;-0.57;92.11;100192.01;106974;1258;62093;-81
2024/01/21 04:01:02;;;;;;;17.50;11.10;;;;;;;-0.62;92.06;100195.08;105778;1262;73931;-83
2024/01/21 04:03:29;;;;;;;16.50;10.90;;;;;;;-0.57;92.01;100196.56;105646;1256;71531;-80
2024/01/21 04:05:56;;;;;;;14.30;10.30;;;;;;;-0.52;91.91;100204.77;105956;1259;71615;-82
2024/01/21 04:08:23;;;;;;;15.40;10.90;;;;;;;-0.57;91.94;100202.27;106110;1257;60231;-85
2024/01/21 04:10:50;;;;;;;16.20;11.40;;;;;;;-0.63;92.19;100202.98;105912;1256;62062;-85
2024/01/21 04:13:18;;;;;;;18.50;11.70;;;;;;;-0.58;92.19;100210.52;106995;1255;72493;-84
2024/01/21 04:15:46;;;;;;;14.80;10.60;;;;;;;-0.53;92.28;100218.04;106400;1262;69208;-82
2024/01/21 04:18:13;;;;;;;18.60;12.70;;;;;;;-0.54;92.41;100222.14;106745;1257;72685;-81
2024/01/21 04:20:40;;;;;;;16.50;11.30;;;;;;;-0.60;92.50;100226.77;106149;1259;60447;-81
2024/01/21 04:23:06;;;;;;;17.40;10.50;;;;;;;-0.54;92.48;100232.40;105863;1256;61215;-81
2024/01/21 04:25:33;;;;;;;14.80;10.40;;;;;;;-0.46;92.26;100234.55;106472;1256;73753;-79
2024/01/21 04:28:00;;;;;;;17.20;10.80;;;;;;;-0.45;92.39;100241.48;106584;1257;69100;-82
2024/01/21 04:30:26;;;;;;;15.30;10.10;;;;;;;-0.50;92.30;100245.89;106025;1260;71859;-80
2024/01/21 04:32:54;;;;;;;17.20;10.60;;;;;;;-0.49;92.32;100246.40;105826;1256;61114;-80
2024/01/21 04:35:21;;;;;;;16.30;10.20;;;;;;;-0.42;92.14;100249.78;105623;1256;60642;-80
2024/01/21 04:37:48;;;;;;;15.70;11.00;;;;;;;-0.42;92.15;100252.23;106022;1257;72224;-84
2024/01/21 04:40:15;;;;;;;19.00;11.40;;;;;;;-0.47;92.47;100255.81;106158;1256;69049;-85
2024/01/21 04:42:42;;;;;;;15.40;10.00;;;;;;;-0.50;92.55;100259.33;106524;1256;72457;-84
2024/01/21 04:45:09;;;;;;;11.50;8.40;;;;;;;-0.45;92.12;100261.65;107030;1255;60451;-85
2024/01/21 04:47:38;;;;;;;13.50;9.50;;;;;;;-0.38;91.88;100272.43;109221;1256;60322;-82
2024/01/21 04:50:05;;;;;;;14.20;10.40;;;;;;;-0.39;92.04;100276.43;109237;1255;72917;-84
2024/01/21 04:52:32;;;;;;;14.30;10.50;;;;;;;-0.42;92.15;100277.65;108934;1256;166693;-83
2024/01/21 04:56:40;;;;;;;13.30;9.70;;;;;;;-0.40;92.20;100281.19;104491;1292;614113;-83
2024/01/21 04:59:09;;;;;;;16.20;10.70;;;;;;;-0.28;91.71;100286.47;105597;1272;59450;-87
2024/01/21 05:01:38;;;;;;;13.30;9.60;;;;;;;-0.26;91.60;100291.90;105603;1267;60344;-83
2024/01/21 05:04:05;;;;;;;14.20;9.70;;;;;;;-0.30;91.73;100298.40;106886;1263;72017;-81
2024/01/21 05:06:32;;;;;;;14.40;9.90;;;;;;;-0.34;91.95;100302.95;107122;1263;69042;-85
2024/01/21 05:08:59;;;;;;;13.90;9.90;;;;;;;-0.27;91.86;100301.91;106326;1263;172450;-85
2024/01/21 05:11:26;;;;;;;15.10;9.00;;;;;;;-0.20;91.50;100307.57;106050;1253;59245;-83
2024/01/21 05:13:52;;;;;;;15.30;10.30;;;;;;;-0.22;91.61;100310.11;107775;1253;59079;-81
2024/01/21 05:16:19;;;;;;;14.90;10.10;;;;;;;-0.26;91.54;100314.70;107182;1256;72094;-81
2024/01/21 05:18:46;;;;;;;12.30;8.50;;;;;;;-0.22;91.47;100322.16;106004;1259;68841;-84
2024/01/21 05:21:20;;;;;;;14.20;9.90;;;;;;;-0.14;91.22;100323.30;106438;1259;72480;-84
2024/01/21 05:23:50;;;;;;;13.70;9.70;;;;;;;-0.17;91.11;100327.30;106432;1253;59563;-88
2024/01/21 05:26:18;;;;;;;14.10;9.30;;;;;;;-0.23;91.18;100331.97;106776;1253;60506;-85
2024/01/21 05:28:46;;;;;;;11.70;9.20;;;;;;;-0.28;91.21;100333.83;106522;1257;73239;-85
2024/01/21 05:31:13;;;;;;;14.50;9.70;;;;;;;-0.23;90.97;100336.98;106407;1254;70828;-84
2024/01/21 05:33:40;;;;;;;15.90;10.60;;;;;;;-0.18;90.53;100346.66;106629;1256;71436;-88
2024/01/21 05:36:11;;;;;;;12.40;9.10;;;;;;;-0.23;90.88;100352.69;106527;1259;59745;-87
2024/01/21 05:38:38;;;;;;;17.30;10.60;;;;;;;-0.28;91.26;100357.11;106308;1261;59577;-83
2024/01/21 05:41:05;;;;;;;14.10;9.70;;;;;;;-0.30;91.44;100359.47;107135;1253;72947;-86
2024/01/21 05:43:32;;;;;;;13.20;8.60;;;;;;;-0.23;91.14;100362.96;107826;1253;68808;-81
2024/01/21 05:45:59;;;;;;;15.00;9.80;;;;;;;-0.13;91.00;100367.27;109170;1254;71106;-80
2024/01/21 05:48:26;;;;;;;11.40;8.00;;;;;;;-0.12;90.95;100369.49;109465;1255;58155;-82
2024/01/21 05:50:53;;;;;;;15.40;9.30;;;;;;;-0.13;90.98;100382.47;107549;1254;59705;-83
2024/01/21 05:53:19;;;;;;;15.50;9.20;;;;;;;-0.13;90.91;100383.14;107193;1257;72245;-83
2024/01/21 05:55:47;;;;;;;14.40;10.30;;;;;;;-0.02;90.60;100390.70;107840;1255;68922;-81
2024/01/21 05:58:15;;;;;;;14.30;9.90;;;;;;;0.01;90.30;100391.80;106991;1254;72737;-84
2024/01/21 06:00:42;;;;;;;14.50;11.00;;;;;;;-0.02;90.46;100399.44;108107;1254;59604;-80
2024/01/21 06:03:10;;;;;;;14.80;9.80;;;;;;;-0.03;90.89;100403.44;105948;1260;60227;-80
2024/01/21 06:05:37;;;;;;;13.00;10.30;;;;;;;-0.01;90.46;100408.23;105800;1259;73010;-79
2024/01/21 06:08:04;;;;;;;14.40;9.60;;;;;;;0.08;90.30;100413.86;105888;1254;70254;-80
2024/01/21 06:10:31;;;;;;;12.40;9.00;;;;;;;0.12;90.49;100423.91;105961;1267;73601;-81
2024/01/21 06:12:57;;;;;;;12.20;10.00;;;;;;;0.10;90.59;100428.20;106487;1259;59554;-79
2024/01/21 06:15:24;;;;;;;12.20;9.30;;;;;;;0.04;90.37;100433.40;106460;1256;60232;-80
2024/01/21 06:17:51;;;;;;;14.20;10.50;;;;;;;0.02;90.04;100435.48;106890;1258;71513;-81
2024/01/21 06:20:18;;;;;;;12.80;9.90;;;;;;;0.06;89.82;100439.02;106091;1254;70077;-81
2024/01/21 06:22:44;;;;;;;14.90;9.40;;;;;;;0.08;90.01;100446.41;106138;1254;71403;-79
2024/01/21 06:25:14;;;;;;;13.60;9.80;;;;;;;0.01;89.97;100446.29;106967;1260;59771;-82
2024/01/21 06:27:40;;;;;;;13.20;10.50;;;;;;;-0.08;90.25;100454.09;106070;1257;60015;-81
2024/01/21 06:30:13;;;;;;;14.00;10.60;;;;;;;-0.09;90.90;100456.92;107638;1256;72105;-81
2024/01/21 06:32:40;;;;;;;13.10;10.90;;;;;;;0.05;90.72;100462.45;108535;1256;69030;-81
2024/01/21 06:35:20;;;;;;;13.50;10.70;;;;;;;0.19;90.49;100466.89;108759;1254;72600;-81
2024/01/21 06:37:46;;;;;;;13.90;10.50;;;;;;;0.23;90.57;100471.23;108231;1254;58367;-81
2024/01/21 06:40:13;;;;;;;14.90;11.10;;;;;;;0.26;90.59;100473.67;108578;1254;58944;-82
2024/01/21 06:42:40;;;;;;;12.90;10.10;;;;;;;0.25;90.10;100480.52;108800;1257;71760;-80
2024/01/21 06:45:07;;;;;;;13.80;10.90;;;;;;;0.32;89.68;100485.87;108967;1253;68909;-81
2024/01/21 06:47:37;;;;;;;10.40;8.60;;;;;;;0.37;89.04;100493.77;109119;1258;71296;-81
2024/01/21 06:50:04;;;;;;;14.00;11.00;;;;;;;0.33;88.87;100498.72;107366;1256;60162;-81
2024/01/21 06:52:31;;;;;;;13.40;9.70;;;;;;;0.25;88.83;100501.75;107085;1254;60167;-80
2024/01/21 06:54:58;;;;;;;11.20;9.50;;;;;;;0.26;88.71;100509.04;106956;1257;73086;-80
2024/01/21 06:57:25;;;;;;;11.80;9.60;;;;;;;0.30;88.65;100512.63;106584;1260;69048;-80
2024/01/21 06:59:52;;;;;;;12.40;10.20;;;;;;;0.30;88.97;100517.55;106914;1257;71253;-80
2024/01/21 07:02:18;;;;;;;15.90;11.80;;;;;;;0.25;88.85;100521.14;106672;1254;59784;-79
2024/01/21 07:04:45;;;;;;;14.90;11.30;;;;;;;0.21;88.87;100530.92;106137;1255;60352;-80
2024/01/21 07:07:12;;;;;;;12.90;9.90;;;;;;;0.24;88.47;100541.38;107666;1254;73132;-80
2024/01/21 07:09:41;;;;;;;15.40;11.20;;;;;;;0.28;88.56;100547.61;107682;1260;70735;-80
2024/01/21 07:12:08;;;;;;;14.50;11.60;;;;;;;0.26;88.76;100550.14;106290;1257;71234;-81
2024/01/21 07:14:35;;;;;;;14.70;11.50;;;;;;;0.22;88.85;100553.48;106436;1255;59729;-81
2024/01/21 07:17:03;;;;;;;13.60;10.90;;;;;;;0.16;88.85;100560.43;106503;1260;59606;-82
2024/01/21 07:19:30;;;;;;;14.00;11.00;;;;;;;0.17;88.59;100560.88;106929;1254;72923;-81
2024/01/21 07:21:58;;;;;;;13.40;11.00;;;;;;;0.23;88.92;100565.67;107151;1259;70394;-81
2024/01/21 07:24:25;;;;;;;15.80;12.10;;;;;;;0.20;89.19;100567.87;106828;1259;72546;-79
2024/01/21 07:26:52;;;;;;;18.80;13.40;;;;;;;0.15;89.15;100569.20;106427;1256;59785;-80
2024/01/21 07:29:18;;;;;;;15.50;12.50;;;;;;;0.12;88.99;100569.53;106378;1260;59570;-79
2024/01/21 07:31:45;;;;;;;16.00;12.50;;;;;;;0.18;88.56;100571.98;106291;1262;71713;-76
2024/01/21 07:34:12;;;;;;;16.80;13.10;;;;;;;0.22;88.78;100573.93;106277;1259;70270;-76
2024/01/21 07:36:39;;;;;;;17.00;12.30;;;;;;;0.16;88.68;100575.56;106449;1254;72674;-77
2024/01/21 07:39:06;;;;;;;15.30;11.40;;;;;;;0.09;88.62;100581.38;106249;1270;61109;-77
2024/01/21 07:41:33;;;;;;;15.50;11.80;;;;;;;0.14;88.83;100588.74;107071;1254;60287;-75
2024/01/21 07:43:59;;;;;;;17.40;13.20;;;;;;;0.22;88.50;100592.68;108793;1254;59631;-77
2024/01/21 07:46:26;;;;;;;15.50;12.90;;;;;;;0.16;88.38;100605.00;108624;1254;68977;-77
2024/01/21 07:48:53;;;;;;;15.40;12.10;;;;;;;0.10;88.75;100612.82;106197;1259;72653;-76
2024/01/21 07:51:20;;;;;;;15.70;11.90;;;;;;;0.08;88.65;100614.48;106203;1255;61031;-77
2024/01/21 07:53:47;;;;;;;16.20;12.90;;;;;;;0.14;88.58;100623.74;106089;1260;61062;-79
2024/01/21 07:56:13;;;;;;;15.60;12.60;;;;;;;0.14;88.75;100623.60;105840;1261;72890;-79
2024/01/21 07:58:40;;;;;;;17.20;12.90;;;;;;;0.13;89.22;100624.38;105858;1258;70334;-79
2024/01/21 08:01:11;;;;;;;18.40;13.30;;;;;;;0.10;88.94;100630.21;105927;1259;71140;-79
2024/01/21 08:03:39;;;;;;;14.90;11.70;;;;;;;0.17;88.96;100639.61;105892;1258;60886;-79
2024/01/21 08:06:07;;;;;;;15.30;12.40;;;;;;;0.25;89.17;100641.35;105939;1254;60229;-81
2024/01/21 08:08:34;;;;;;;16.30;12.50;;;;;;;0.21;88.93;100654.25;106480;1255;73088;-80
2024/01/21 08:11:01;;;;;;;14.40;11.80;;;;;;;0.15;88.98;100659.09;106478;1259;68213;-80
2024/01/21 08:13:28;;;;;;;16.10;12.30;;;;;;;0.21;88.79;100664.88;105811;1260;72728;-80
2024/01/21 08:15:56;;;;;;;16.60;12.20;;;;;;;0.29;88.57;100664.66;106001;1259;59603;-81
2024/01/21 08:18:23;;;;;;;16.80;13.00;;;;;;;0.30;88.87;100670.19;106291;1258;60164;-80
2024/01/21 08:20:51;;;;;;;17.70;13.10;;;;;;;0.25;88.61;100676.17;106857;1260;71553;-80
2024/01/21 08:23:19;;;;;;;16.00;13.50;;;;;;;0.24;88.49;100682.35;106400;1261;69358;-80
2024/01/21 08:25:46;;;;;;;16.90;13.50;;;;;;;0.30;88.33;100685.70;106099;1259;72693;-79
2024/01/21 08:28:13;;;;;;;18.50;14.00;;;;;;;0.27;88.50;100688.42;105974;1255;59653;-79
2024/01/21 08:30:39;;;;;;;17.60;13.30;;;;;;;0.25;88.94;100697.45;105975;1254;59625;-79
2024/01/21 08:33:06;;;;;;;15.80;13.50;;;;;;;0.23;88.89;100705.54;105890;1255;71552;-79
2024/01/21 08:35:33;;;;;;;20.20;14.10;;;;;;;0.30;88.73;100709.75;106262;1253;70111;-80
2024/01/21 08:38:00;;;;;;;17.30;13.20;;;;;;;0.36;88.49;100710.27;107225;1258;59624;-79
2024/01/21 08:40:27;;;;;;;18.40;14.60;;;;;;;0.34;88.59;100717.20;106512;1254;59631;-79
2024/01/21 08:42:54;;;;;;;20.00;14.70;;;;;;;0.33;89.13;100721.73;109178;1254;58312;-81
2024/01/21 08:45:21;;;;;;;19.80;14.10;;;;;;;0.43;89.26;100725.41;108381;1257;71272;-81
2024/01/21 08:47:48;;;;;;;17.50;12.80;;;;;;;0.55;88.59;100729.34;106867;1254;70437;-79
2024/01/21 08:50:16;;;;;;;22.10;18.10;;;;;;;0.62;88.25;100731.23;106422;1258;72731;-80
2024/01/21 08:52:42;;;;;;;21.00;14.80;;;;;;;0.66;88.84;100736.48;106175;1261;59717;-80
2024/01/21 08:55:09;;;;;;;20.50;14.00;;;;;;;0.76;89.27;100741.33;105962;1259;59784;-79
2024/01/21 08:57:36;;;;;;;18.30;13.50;;;;;;;0.91;88.60;100741.25;106242;1255;59605;-80
2024/01/21 09:00:05;;;;;;;17.80;14.80;;;;;;;1.01;88.11;100740.89;106018;1261;68176;-78
2024/01/21 09:02:32;;;;;;;16.80;12.90;;;;;;;1.01;87.74;100743.33;106821;1257;72690;-81
2024/01/21 09:04:58;;;;;;;20.80;13.90;;;;;;;0.92;87.60;100740.32;107534;1254;60459;-80
2024/01/21 09:07:27;;;;;;;17.00;13.60;;;;;;;0.91;87.77;100741.75;106804;1260;60322;-80
2024/01/21 09:09:53;;;;;;;18.40;14.70;;;;;;;1.02;87.78;100745.34;106993;1259;73556;-81
2024/01/21 09:12:20;;;;;;;17.10;14.10;;;;;;;1.08;87.67;100751.83;105903;1257;70139;-81
2024/01/21 09:14:47;;;;;;;18.70;14.80;;;;;;;1.09;87.96;100756.48;106330;1255;70891;-81
2024/01/21 09:17:14;;;;;;;17.00;13.00;;;;;;;1.08;87.58;100758.48;106788;1254;61075;-81
2024/01/21 09:19:41;;;;;;;17.70;14.20;;;;;;;1.12;87.36;100763.50;106740;1254;59112;-83
2024/01/21 09:22:08;;;;;;;18.30;15.00;;;;;;;1.11;87.20;100767.58;106480;1257;73725;-83
2024/01/21 09:24:36;;;;;;;17.70;14.30;;;;;;;1.09;87.59;100772.72;106157;1258;70342;-81
2024/01/21 09:27:03;;;;;;;16.10;13.70;;;;;;;1.18;87.63;100779.08;105883;1254;71245;-82
2024/01/21 09:29:30;;;;;;;15.80;11.90;;;;;;;1.16;87.28;100784.88;105882;1254;60777;-82
2024/01/21 09:31:57;;;;;;;14.70;10.60;;;;;;;1.06;87.10;100793.30;106180;1258;60443;-81
2024/01/21 09:34:24;;;;;;;13.30;10.50;;;;;;;0.96;87.11;100795.89;106323;1255;73771;-81
2024/01/21 09:36:51;;;;;;;13.50;11.10;;;;;;;0.95;86.79;100803.98;106595;1254;70118;-80
2024/01/21 09:39:18;;;;;;;13.90;11.80;;;;;;;0.86;86.60;100806.91;106417;1254;71279;-81
2024/01/21 09:41:52;;;;;;;14.60;10.30;;;;;;;0.73;86.81;100810.86;108670;1254;59447;-81
2024/01/21 09:44:26;;;;;;;15.60;12.40;;;;;;;0.66;86.36;100815.64;109263;1254;59293;-81
2024/01/21 09:46:55;;;;;;;17.90;12.90;;;;;;;0.65;85.73;100822.48;107412;1257;72424;-81
2024/01/21 09:49:22;;;;;;;17.70;14.00;;;;;;;0.59;85.81;100827.65;106847;1254;70151;-82
2024/01/21 09:51:49;;;;;;;18.90;14.40;;;;;;;0.46;85.95;100831.61;106646;1257;71249;-83
2024/01/21 09:54:17;;;;;;;20.00;15.70;;;;;;;0.39;86.11;100833.16;106065;1254;60603;-82
2024/01/21 09:56:44;;;;;;;21.80;15.60;;;;;;;0.38;85.70;100839.67;105866;1261;60329;-82
2024/01/21 09:59:11;;;;;;;26.20;19.40;;;;;;;0.35;85.75;100849.06;105801;1259;73661;-81
2024/01/21 10:01:38;;;;;;;23.90;17.10;;;;;;;0.26;85.64;100854.23;106232;1253;70100;-82
2024/01/21 10:04:08;;;;;;;24.70;19.20;;;;;;;0.14;85.74;100858.80;105619;1257;71128;-80
2024/01/21 10:06:35;;;;;;;24.80;17.20;;;;;;;0.12;85.63;100861.48;105890;1254;60847;-78
2024/01/21 10:09:20;;;;;;;19.90;15.00;;;;;;;0.15;85.90;100867.80;105804;1259;60559;-79
2024/01/21 10:11:54;;;;;;;25.10;17.20;;;;;;;0.05;85.93;100879.23;105893;1257;74002;-80
2024/01/21 10:14:21;;;;;;;;;;;;;;;-0.07;86.43;100884.34;106015;1254;70043;-80
2024/01/21 10:16:49;;;;;;;23.90;15.90;;;;;;;-0.13;86.09;100897.89;105852;1257;72697;-80
2024/01/21 10:19:33;;;;;;;22.70;17.30;;;;;;;-0.15;85.95;100904.23;106201;1258;60437;-80
2024/01/21 10:22:16;;;;;;;23.40;16.90;;;;;;;-0.23;85.92;100911.73;105679;1255;60496;-79
2024/01/21 10:24:44;;;;;;;21.60;15.20;;;;;;;-0.36;85.60;100917.73;105770;1257;73826;-79
2024/01/21 10:27:11;;;;;;;20.40;14.10;;;;;;;-0.46;85.08;100922.88;105706;1261;70381;-80
2024/01/21 10:29:41;;;;;;;23.10;15.50;;;;;;;-0.51;84.71;100929.54;105768;1257;72483;-77
2024/01/21 10:32:11;;;;;;;22.30;13.50;;;;;;;-0.64;84.91;100930.11;105937;1257;60549;-78
2024/01/21 10:34:39;;;;;;;21.90;15.00;;;;;;;-0.82;85.18;100939.37;106173;1254;60431;-81
2024/01/21 10:37:07;;;;;;;18.50;12.50;;;;;;;-0.92;85.34;100946.80;106323;1254;72573;-80
2024/01/21 10:39:37;;;;;;;21.40;14.00;;;;;;;-0.92;85.24;100953.72;106970;1255;70413;-80
2024/01/21 10:42:06;;;;;;;19.10;13.60;;;;;;;-0.91;85.15;100964.30;107867;1254;72360;-80
2024/01/21 10:44:36;;;;;;;19.70;14.20;;;;;;;-0.94;85.33;100972.79;108104;1254;60396;-80
2024/01/21 10:47:03;;;;;;;18.10;13.10;;;;;;;-1.03;85.36;100981.15;106826;1254;60553;-80
2024/01/21 10:49:31;;;;;;;20.20;13.80;;;;;;;-1.09;85.66;100992.35;106480;1254;73747;-80
2024/01/21 10:51:58;;;;;;;19.10;13.50;;;;;;;-1.05;85.51;100993.03;105918;1254;68889;-81
2024/01/21 10:54:25;;;;;;;18.30;13.70;;;;;;;-0.97;85.28;100995.36;106256;1256;72806;-80
2024/01/21 10:56:52;;;;;;;18.90;14.30;;;;;;;-1.01;85.34;100999.84;107232;1257;60523;-80
2024/01/21 10:59:19;;;;;;;19.20;13.10;;;;;;;-1.02;85.82;101007.38;106067;1260;60084;-81
2024/01/21 11:01:45;;;;;;;17.30;12.60;;;;;;;-0.90;85.46;101019.75;105960;1254;72647;-80
2024/01/21 11:04:13;;;;;;;19.30;13.50;;;;;;;-0.91;84.35;101025.17;105529;1258;68778;-79
2024/01/21 11:06:42;;;;;;;23.00;13.40;;;;;;;-1.05;84.48;101030.10;106211;1254;72739;-82
2024/01/21 11:09:10;;;;;;;18.30;13.10;;;;;;;-1.11;84.71;101036.41;105976;1257;60881;-82